Time;durP1;ratioP1;P1;durP2;ratioP2;P2;SDS_P1;SDS_P2;PMS_P1;PMS_P2;Temp;Humidity;BMP_temperature;BMP_pressure;BME280_temperature;BME280_humidity;BME280_pressure;Samples;Min_cycle;Max_cycle;Signal;HPM_P1;HPM_P2
2021/03/14 00:00:34;;;;;;;2.05;0.60;;;6.60;99.90;;;;;;5074677;28;20035;-74
2021/03/14 00:03:01;;;;;;;0.95;0.45;;;6.70;99.90;;;;;;5074741;28;20532;-74
2021/03/14 00:05:28;;;;;;;0.65;0.60;;;6.70;99.90;;;;;;5074470;28;20473;-75
2021/03/14 00:07:54;;;;;;;1.02;0.50;;;6.70;99.90;;;;;;5074545;28;20038;-75
2021/03/14 00:10:19;;;;;;;1.27;0.68;;;6.70;99.90;;;;;;5074304;28;20027;-75
2021/03/14 00:12:45;;;;;;;0.70;0.40;;;6.80;99.90;;;;;;5074488;28;20058;-74
2021/03/14 00:15:12;;;;;;;0.60;0.40;;;6.70;99.90;;;;;;5074610;28;20097;-74
2021/03/14 00:17:37;;;;;;;1.58;0.60;;;6.70;99.90;;;;;;5074620;28;20454;-75
2021/03/14 00:20:05;;;;;;;2.22;0.60;;;6.70;99.90;;;;;;5074450;28;20048;-74
2021/03/14 00:22:31;;;;;;;0.90;0.45;;;6.70;99.90;;;;;;5078475;28;20081;-74
2021/03/14 00:24:57;;;;;;;0.73;0.40;;;6.70;99.90;;;;;;5077940;28;20374;-74
2021/03/14 00:27:23;;;;;;;1.42;0.60;;;6.70;99.90;;;;;;5077831;28;20085;-74
2021/03/14 00:29:48;;;;;;;0.90;0.50;;;6.70;99.90;;;;;;5077814;28;20024;-75
2021/03/14 00:32:14;;;;;;;1.58;0.57;;;6.60;99.90;;;;;;5096221;28;20508;-74
2021/03/14 00:34:39;;;;;;;2.75;0.60;;;6.60;99.90;;;;;;5077768;28;20046;-74
2021/03/14 00:37:07;;;;;;;2.08;0.50;;;6.70;99.90;;;;;;5077780;28;20027;-74
2021/03/14 00:39:33;;;;;;;1.33;0.50;;;6.70;99.90;;;;;;5077562;28;20024;-75
2021/03/14 00:41:59;;;;;;;1.65;0.70;;;6.70;99.90;;;;;;5077600;28;20047;-74
2021/03/14 00:44:25;;;;;;;1.63;0.60;;;6.60;99.90;;;;;;5077568;28;20031;-74
2021/03/14 00:46:51;;;;;;;0.65;0.50;;;6.60;99.90;;;;;;5077583;28;20032;-74
2021/03/14 00:49:23;;;;;;;1.20;0.68;;;6.60;99.90;;;;;;5077517;28;20611;-74
2021/03/14 00:51:49;;;;;;;0.60;0.52;;;6.60;99.90;;;;;;5095747;28;20060;-74
2021/03/14 00:54:15;;;;;;;1.85;0.60;;;6.60;99.90;;;;;;5078122;28;20047;-74
2021/03/14 00:56:41;;;;;;;3.30;1.75;;;6.70;99.90;;;;;;5077901;28;20556;-74
2021/03/14 00:59:06;;;;;;;2.63;0.77;;;6.70;99.90;;;;;;5077874;28;20020;-74
2021/03/14 01:01:32;;;;;;;2.05;0.70;;;6.70;99.90;;;;;;5077452;28;20496;-74
2021/03/14 01:03:58;;;;;;;2.10;0.70;;;6.60;99.90;;;;;;5077071;28;20028;-74
2021/03/14 01:06:24;;;;;;;1.75;0.70;;;6.70;99.90;;;;;;5077714;28;20565;-74
2021/03/14 01:08:50;;;;;;;2.47;0.70;;;6.60;99.90;;;;;;5077852;28;20543;-74
2021/03/14 01:11:16;;;;;;;2.40;0.65;;;6.60;99.90;;;;;;5082659;28;20060;-74
2021/03/14 01:13:42;;;;;;;1.17;0.60;;;6.70;99.90;;;;;;5083824;28;20051;-74
2021/03/14 01:16:07;;;;;;;1.20;0.70;;;6.70;99.90;;;;;;5085071;28;20500;-75
2021/03/14 01:18:33;;;;;;;2.80;0.80;;;6.60;99.90;;;;;;5086948;28;20024;-74
2021/03/14 01:20:58;;;;;;;2.15;0.85;;;6.60;99.90;;;;;;5085007;28;20035;-74
2021/03/14 01:23:24;;;;;;;2.80;1.13;;;6.60;99.90;;;;;;5083995;28;20024;-74
2021/03/14 01:25:50;;;;;;;3.10;0.80;;;6.60;99.90;;;;;;5079731;28;20493;-75
2021/03/14 01:28:15;;;;;;;1.58;0.63;;;6.70;99.90;;;;;;5083736;28;20044;-74
2021/03/14 01:30:41;;;;;;;2.67;0.73;;;6.60;99.90;;;;;;5079497;28;20024;-74
2021/03/14 01:33:07;;;;;;;3.33;0.98;;;6.60;99.90;;;;;;5076571;28;20031;-74
2021/03/14 01:35:32;;;;;;;1.70;0.60;;;6.50;99.90;;;;;;5076693;28;20020;-74
2021/03/14 01:37:58;;;;;;;4.60;0.88;;;6.50;99.90;;;;;;5076653;28;20477;-74
2021/03/14 01:40:24;;;;;;;3.05;0.90;;;6.50;99.90;;;;;;5076383;28;20028;-74
2021/03/14 01:42:49;;;;;;;1.98;0.90;;;6.50;99.90;;;;;;5076417;28;20074;-75
2021/03/14 01:45:16;;;;;;;2.20;0.70;;;6.40;99.90;;;;;;5094516;28;20024;-74
2021/03/14 01:47:47;;;;;;;2.35;0.80;;;6.40;99.90;;;;;;5076150;28;20093;-75
2021/03/14 01:50:14;;;;;;;6.20;2.22;;;6.30;99.90;;;;;;5075963;28;20477;-74
2021/03/14 01:52:39;;;;;;;1.45;0.60;;;6.20;99.90;;;;;;5076227;28;20020;-74
2021/03/14 01:55:07;;;;;;;1.70;0.57;;;6.20;99.90;;;;;;5076123;28;20053;-74
2021/03/14 01:57:34;;;;;;;3.22;0.65;;;6.20;99.90;;;;;;5076168;28;20052;-74
2021/03/14 02:00:00;;;;;;;1.85;0.63;;;6.20;99.90;;;;;;5076036;28;20092;-74
2021/03/14 02:02:27;;;;;;;2.35;0.75;;;6.20;99.90;;;;;;5075990;28;20035;-74
2021/03/14 02:04:53;;;;;;;0.55;0.40;;;6.10;99.90;;;;;;5075969;28;20024;-74
2021/03/14 02:07:19;;;;;;;1.63;0.90;;;6.20;99.90;;;;;;5075979;28;20028;-74
2021/03/14 02:09:45;;;;;;;2.40;0.68;;;6.10;99.90;;;;;;5075802;28;20047;-74
2021/03/14 02:12:15;;;;;;;4.30;0.98;;;6.00;99.90;;;;;;5075641;28;20481;-74
2021/03/14 02:14:42;;;;;;;1.02;0.70;;;5.90;99.90;;;;;;5075886;28;20033;-75
2021/03/14 02:17:13;;;;;;;1.33;0.52;;;5.90;99.90;;;;;;5075768;28;20366;-75
2021/03/14 02:19:41;;;;;;;1.20;0.60;;;5.90;99.90;;;;;;5094148;28;20045;-74
2021/03/14 02:22:07;;;;;;;4.70;0.68;;;5.90;99.90;;;;;;5093505;28;20078;-75
2021/03/14 02:24:48;;;;;;;1.17;0.50;;;5.70;99.90;;;;;;5075736;28;20499;-75
2021/03/14 02:27:15;;;;;;;1.10;0.50;;;5.70;99.90;;;;;;5094074;28;20040;-75
2021/03/14 02:29:41;;;;;;;1.48;0.80;;;5.60;99.90;;;;;;5093944;28;20050;-75
2021/03/14 02:32:09;;;;;;;2.38;0.50;;;5.40;99.90;;;;;;5093578;28;20042;-75
2021/03/14 02:34:43;;;;;;;1.90;0.60;;;5.20;99.90;;;;;;5093642;28;20461;-75
2021/03/14 02:37:10;;;;;;;0.65;0.40;;;5.10;99.90;;;;;;5093983;28;20024;-74
2021/03/14 02:39:37;;;;;;;0.60;0.50;;;5.00;99.90;;;;;;5075518;28;20372;-74
2021/03/14 02:42:07;;;;;;;0.43;0.43;;;4.90;99.90;;;;;;5093497;28;20090;-74
2021/03/14 02:44:35;;;;;;;2.08;0.40;;;4.90;99.90;;;;;;5093001;28;20057;-74
2021/03/14 02:47:01;;;;;;;0.70;0.40;;;4.80;99.90;;;;;;5075187;28;20119;-75
2021/03/14 02:49:27;;;;;;;0.65;0.40;;;4.70;99.90;;;;;;5093213;28;20046;-75
2021/03/14 02:51:53;;;;;;;1.23;0.40;;;4.60;99.90;;;;;;5096145;28;20020;-75
2021/03/14 02:54:19;;;;;;;0.80;0.40;;;4.60;99.90;;;;;;5075312;28;20102;-75
2021/03/14 02:56:47;;;;;;;0.50;0.40;;;4.60;99.90;;;;;;5093289;28;20046;-73
2021/03/14 02:59:21;;;;;;;0.38;0.38;;;4.50;99.90;;;;;;5093229;28;20055;-75
2021/03/14 03:01:49;;;;;;;0.60;0.50;;;4.60;99.90;;;;;;5075220;28;20035;-75
2021/03/14 03:04:23;;;;;;;0.55;0.40;;;4.60;99.90;;;;;;5075108;28;20028;-74
2021/03/14 03:06:50;;;;;;;0.40;0.40;;;4.60;99.90;;;;;;5093267;28;20112;-74
2021/03/14 03:09:17;;;;;;;0.88;0.30;;;4.60;99.90;;;;;;5075010;28;20481;-75
2021/03/14 03:11:44;;;;;;;0.30;0.30;;;4.50;99.90;;;;;;5075044;28;20077;-75
2021/03/14 03:14:14;;;;;;;2.08;0.50;;;4.60;99.90;;;;;;5093485;28;20103;-75
2021/03/14 03:16:41;;;;;;;1.02;0.40;;;4.60;99.90;;;;;;5093403;28;20070;-75
2021/03/14 03:19:11;;;;;;;0.57;0.30;;;4.50;99.90;;;;;;5093183;28;20027;-74
2021/03/14 03:21:37;;;;;;;0.60;0.50;;;4.50;99.90;;;;;;5093262;28;20020;-74
2021/03/14 03:24:03;;;;;;;0.50;0.43;;;4.50;99.90;;;;;;5075295;28;20503;-75
2021/03/14 03:26:29;;;;;;;1.65;0.40;;;4.50;99.90;;;;;;5074981;28;20030;-75
2021/03/14 03:28:54;;;;;;;0.95;0.50;;;4.50;99.90;;;;;;5093271;28;20107;-75
2021/03/14 03:31:20;;;;;;;0.43;0.43;;;4.60;99.90;;;;;;5075148;28;20035;-75
2021/03/14 03:33:45;;;;;;;1.83;0.40;;;4.50;99.90;;;;;;5075237;28;20021;-75
2021/03/14 03:36:11;;;;;;;0.30;0.30;;;4.50;99.90;;;;;;5093077;28;20162;-75
2021/03/14 03:38:37;;;;;;;0.73;0.40;;;4.40;99.90;;;;;;5074998;28;20039;-75
2021/03/14 03:41:03;;;;;;;0.40;0.40;;;4.40;99.90;;;;;;5074891;28;20024;-75
2021/03/14 03:43:32;;;;;;;1.13;0.70;;;4.30;99.90;;;;;;5093412;28;20389;-75
2021/03/14 03:46:01;;;;;;;0.32;0.32;;;4.30;99.90;;;;;;5074616;28;20090;-75
2021/03/14 03:48:42;;;;;;;1.50;0.60;;;4.30;99.90;;;;;;5074789;28;20020;-76
2021/03/14 03:51:08;;;;;;;0.63;0.30;;;4.20;99.90;;;;;;5074802;28;20055;-75
2021/03/14 03:53:35;;;;;;;0.55;0.40;;;4.30;99.90;;;;;;5074677;28;20043;-75
2021/03/14 03:56:01;;;;;;;0.38;0.38;;;4.30;99.90;;;;;;5076184;28;20439;-75
2021/03/14 03:58:29;;;;;;;0.40;0.40;;;4.30;99.90;;;;;;5078357;28;20074;-74
2021/03/14 04:00:55;;;;;;;1.90;0.30;;;4.40;99.90;;;;;;5078278;28;20057;-74
2021/03/14 04:03:22;;;;;;;0.47;0.30;;;4.40;99.90;;;;;;5096505;28;20404;-75
2021/03/14 04:05:50;;;;;;;0.85;0.45;;;4.40;99.90;;;;;;5078259;28;20027;-74
2021/03/14 04:08:16;;;;;;;0.50;0.50;;;4.40;99.90;;;;;;5078314;28;20028;-74
2021/03/14 04:10:43;;;;;;;0.52;0.35;;;4.40;99.90;;;;;;5078194;28;20122;-75
2021/03/14 04:13:09;;;;;;;1.48;0.40;;;4.40;99.90;;;;;;5096568;28;20024;-74
2021/03/14 04:15:36;;;;;;;0.63;0.40;;;4.40;99.90;;;;;;5078124;28;20024;-75
2021/03/14 04:18:03;;;;;;;1.15;0.25;;;4.30;99.90;;;;;;5096154;28;20020;-74
2021/03/14 04:20:32;;;;;;;0.57;0.30;;;4.30;99.90;;;;;;5078026;28;20461;-74
2021/03/14 04:23:02;;;;;;;0.77;0.30;;;4.30;99.90;;;;;;5096058;28;20028;-75
2021/03/14 04:25:28;;;;;;;1.02;0.32;;;4.30;99.90;;;;;;5096190;28;20485;-74
2021/03/14 04:27:57;;;;;;;0.40;0.38;;;4.40;99.90;;;;;;5077872;28;20035;-74
2021/03/14 04:30:26;;;;;;;0.50;0.40;;;4.40;99.90;;;;;;5095798;28;20169;-74
2021/03/14 04:32:52;;;;;;;0.30;0.30;;;4.40;99.90;;;;;;5095898;28;20020;-74
2021/03/14 04:35:19;;;;;;;0.47;0.30;;;4.40;99.90;;;;;;5095874;28;20028;-74
2021/03/14 04:37:45;;;;;;;0.38;0.38;;;4.40;99.90;;;;;;5095818;28;20099;-74
2021/03/14 04:40:13;;;;;;;0.40;0.40;;;4.40;99.90;;;;;;5095716;28;20031;-74
2021/03/14 04:42:42;;;;;;;0.38;0.38;;;4.40;99.90;;;;;;5095800;28;20095;-74
2021/03/14 04:45:09;;;;;;;0.57;0.40;;;4.40;99.90;;;;;;5077656;28;20073;-75
2021/03/14 04:47:35;;;;;;;0.63;0.50;;;4.40;99.90;;;;;;5095951;28;20073;-74
2021/03/14 04:50:03;;;;;;;0.55;0.40;;;4.50;99.90;;;;;;5107409;23;20183;-74
2021/03/14 04:52:29;;;;;;;0.30;0.30;;;4.40;99.90;;;;;;5057193;28;20025;-74
2021/03/14 04:54:55;;;;;;;0.30;0.30;;;4.40;99.90;;;;;;5057377;28;20147;-74
2021/03/14 04:57:22;;;;;;;0.85;0.40;;;4.40;99.90;;;;;;5057242;28;20024;-73
2021/03/14 04:59:49;;;;;;;0.28;0.28;;;4.40;99.90;;;;;;5057727;28;20031;-74
2021/03/14 05:02:15;;;;;;;2.05;0.40;;;4.40;99.90;;;;;;5078633;28;20078;-74
2021/03/14 05:04:43;;;;;;;0.30;0.30;;;4.40;99.90;;;;;;5058522;28;20031;-74
2021/03/14 05:07:12;;;;;;;0.30;0.30;;;4.40;99.90;;;;;;5060195;28;20028;-74
2021/03/14 05:09:40;;;;;;;0.30;0.30;;;4.40;99.90;;;;;;5059116;28;20025;-74
2021/03/14 05:12:08;;;;;;;0.40;0.40;;;4.40;99.90;;;;;;5075043;28;20099;-74
2021/03/14 05:14:35;;;;;;;0.40;0.40;;;4.40;99.90;;;;;;5057285;28;20021;-73
2021/03/14 05:17:02;;;;;;;0.30;0.30;;;4.40;99.90;;;;;;5057222;28;20123;-74
2021/03/14 05:19:30;;;;;;;0.30;0.30;;;4.40;99.90;;;;;;5058039;28;20017;-75
2021/03/14 05:21:56;;;;;;;0.40;0.40;;;4.30;99.90;;;;;;5058279;28;20043;-74
2021/03/14 05:24:22;;;;;;;0.40;0.30;;;4.40;99.90;;;;;;5057406;28;20025;-74
2021/03/14 05:26:49;;;;;;;0.32;0.32;;;4.30;99.90;;;;;;5057385;28;20033;-74
2021/03/14 05:29:16;;;;;;;0.30;0.30;;;4.30;99.90;;;;;;5057363;28;20024;-74
2021/03/14 05:31:42;;;;;;;0.40;0.40;;;4.20;99.90;;;;;;5056907;28;20028;-74
2021/03/14 05:34:13;;;;;;;0.40;0.40;;;4.10;99.90;;;;;;5056589;28;20073;-74
2021/03/14 05:36:39;;;;;;;0.45;0.45;;;4.10;99.90;;;;;;5056683;28;20017;-74
2021/03/14 05:39:06;;;;;;;0.63;0.63;;;4.00;99.90;;;;;;5074740;28;20028;-74
2021/03/14 05:41:33;;;;;;;1.02;0.85;;;4.00;99.90;;;;;;5056506;28;20029;-74
2021/03/14 05:44:00;;;;;;;0.85;0.40;;;4.00;99.90;;;;;;5056407;28;20024;-74
2021/03/14 05:46:26;;;;;;;0.70;0.52;;;4.00;99.90;;;;;;5056338;28;20028;-74
2021/03/14 05:48:51;;;;;;;3.35;0.60;;;3.90;99.90;;;;;;5056407;28;20170;-74
2021/03/14 05:51:25;;;;;;;0.43;0.30;;;4.00;99.90;;;;;;5056161;28;20067;-75
2021/03/14 05:53:52;;;;;;;0.63;0.63;;;3.90;99.90;;;;;;5074282;28;20032;-75
2021/03/14 05:56:20;;;;;;;0.40;0.40;;;3.80;99.90;;;;;;5074182;28;20024;-74
2021/03/14 05:58:46;;;;;;;0.50;0.50;;;3.80;99.90;;;;;;5074365;28;20017;-74
2021/03/14 06:01:16;;;;;;;1.63;0.60;;;3.70;99.90;;;;;;5073989;28;20028;-74
2021/03/14 06:03:41;;;;;;;0.68;0.40;;;3.60;99.90;;;;;;5056108;28;20048;-74
2021/03/14 06:06:09;;;;;;;0.63;0.60;;;3.60;99.90;;;;;;5074102;28;20063;-74
2021/03/14 06:08:35;;;;;;;1.48;0.52;;;3.60;99.90;;;;;;5074884;28;20099;-75
2021/03/14 06:11:05;;;;;;;0.60;0.60;;;3.50;99.90;;;;;;5075013;28;20104;-75
2021/03/14 06:13:32;;;;;;;5.00;2.90;;;3.40;99.90;;;;;;5076153;28;20446;-74
2021/03/14 06:15:58;;;;;;;0.68;0.47;;;3.30;99.90;;;;;;5074896;28;20539;-75
2021/03/14 06:18:25;;;;;;;1.20;0.52;;;3.30;99.90;;;;;;5073289;28;20033;-75
2021/03/14 06:20:51;;;;;;;1.50;0.60;;;3.30;99.90;;;;;;5073615;28;20028;-75
2021/03/14 06:23:18;;;;;;;0.60;0.40;;;3.30;99.90;;;;;;5055799;28;20032;-75
2021/03/14 06:25:56;;;;;;;0.50;0.50;;;3.30;99.90;;;;;;5073571;28;20074;-75
2021/03/14 06:28:33;;;;;;;0.30;0.30;;;3.40;99.90;;;;;;5073512;28;20077;-75
2021/03/14 06:31:14;;;;;;;0.93;0.63;;;3.40;99.90;;;;;;5055464;28;20024;-75
2021/03/14 06:33:39;;;;;;;0.50;0.40;;;3.50;99.90;;;;;;5073493;28;20059;-75
2021/03/14 06:36:15;;;;;;;0.30;0.30;;;3.60;99.90;;;;;;5073422;28;20056;-74
2021/03/14 06:38:41;;;;;;;1.63;1.00;;;3.70;99.90;;;;;;5056291;28;20020;-74
2021/03/14 06:41:06;;;;;;;0.47;0.47;;;3.70;99.90;;;;;;5073308;28;20505;-74
2021/03/14 06:43:39;;;;;;;1.70;0.50;;;3.80;99.90;;;;;;5072043;28;20029;-74
2021/03/14 06:46:17;;;;;;;0.80;0.50;;;3.80;99.90;;;;;;5073267;28;20020;-74
2021/03/14 06:48:43;;;;;;;0.40;0.40;;;3.90;99.90;;;;;;5072096;28;20089;-74
2021/03/14 06:51:08;;;;;;;0.57;0.43;;;3.90;99.90;;;;;;5073044;28;20485;-74
2021/03/14 06:53:34;;;;;;;0.75;0.50;;;3.90;99.90;;;;;;5073217;28;20021;-74
2021/03/14 06:56:05;;;;;;;0.70;0.40;;;4.00;99.90;;;;;;5073160;28;20028;-73
2021/03/14 06:58:33;;;;;;;0.50;0.50;;;4.00;99.90;;;;;;5073225;28;20016;-74
2021/03/14 07:01:11;;;;;;;1.00;0.60;;;4.00;99.90;;;;;;5073187;28;20052;-74
2021/03/14 07:03:49;;;;;;;0.85;0.55;;;4.00;99.90;;;;;;5073120;28;20456;-74
2021/03/14 07:06:17;;;;;;;0.77;0.50;;;4.00;99.90;;;;;;5055084;28;20025;-74
2021/03/14 07:08:45;;;;;;;1.80;0.95;;;4.00;99.90;;;;;;5073078;28;20074;-74
2021/03/14 07:11:11;;;;;;;0.47;0.40;;;4.10;99.90;;;;;;5072857;28;20051;-74
2021/03/14 07:13:38;;;;;;;1.40;0.65;;;4.10;99.90;;;;;;5073349;28;20077;-74
2021/03/14 07:16:04;;;;;;;0.60;0.60;;;4.20;99.90;;;;;;5072896;28;20035;-74
2021/03/14 07:18:32;;;;;;;2.78;1.30;;;4.20;99.90;;;;;;5054975;28;20089;-74
2021/03/14 07:20:58;;;;;;;2.15;0.80;;;4.30;99.90;;;;;;5054705;28;20050;-74
2021/03/14 07:23:32;;;;;;;1.42;1.33;;;4.30;99.90;;;;;;5054912;28;20483;-75
2021/03/14 07:25:59;;;;;;;1.10;0.82;;;4.30;99.90;;;;;;5055233;28;20024;-74
2021/03/14 07:28:25;;;;;;;1.58;0.57;;;4.40;99.90;;;;;;5054924;28;20025;-74
2021/03/14 07:30:51;;;;;;;0.73;0.70;;;4.50;99.90;;;;;;5075857;28;20028;-75
2021/03/14 07:33:17;;;;;;;0.75;0.75;;;4.50;99.90;;;;;;5059137;28;20569;-75
2021/03/14 07:35:44;;;;;;;0.77;0.77;;;4.50;99.90;;;;;;5058864;28;20386;-74
2021/03/14 07:38:11;;;;;;;0.55;0.55;;;4.60;99.90;;;;;;5076811;28;20025;-75
2021/03/14 07:40:36;;;;;;;1.40;1.00;;;4.70;99.90;;;;;;5076772;28;20067;-74
2021/03/14 07:43:04;;;;;;;0.63;0.63;;;4.70;99.90;;;;;;5058821;28;20064;-75
2021/03/14 07:45:33;;;;;;;1.83;1.10;;;4.60;99.90;;;;;;5058950;28;20024;-74
2021/03/14 07:48:00;;;;;;;0.90;0.80;;;4.60;99.90;;;;;;5076607;28;20074;-74
2021/03/14 07:50:35;;;;;;;0.75;0.60;;;4.60;99.90;;;;;;5058250;28;20505;-74
2021/03/14 07:53:06;;;;;;;0.70;0.70;;;4.60;99.90;;;;;;5058741;28;20059;-74
2021/03/14 07:55:32;;;;;;;1.77;0.73;;;4.60;99.90;;;;;;5058770;28;20094;-74
2021/03/14 07:57:58;;;;;;;1.05;0.80;;;4.70;99.90;;;;;;5058563;28;20107;-74
2021/03/14 08:00:25;;;;;;;0.77;0.70;;;4.70;99.90;;;;;;5058709;28;20027;-74
2021/03/14 08:03:04;;;;;;;1.58;1.42;;;4.80;99.90;;;;;;5076194;28;20096;-74
2021/03/14 08:05:42;;;;;;;1.90;1.00;;;5.10;99.90;;;;;;5076220;28;20016;-75
2021/03/14 08:08:10;;;;;;;1.08;0.60;;;5.30;99.90;;;;;;5076487;28;20027;-75
2021/03/14 08:10:45;;;;;;;1.17;0.70;;;5.40;99.90;;;;;;5076148;28;20029;-74
2021/03/14 08:13:41;;;;;;;2.15;0.80;;;5.50;99.90;;;;;;5076187;28;20056;-75
2021/03/14 08:16:09;;;;;;;1.27;0.77;;;5.70;99.90;;;;;;5058291;28;20020;-74
2021/03/14 08:18:43;;;;;;;1.45;0.80;;;5.70;99.90;;;;;;5058709;28;20025;-74
2021/03/14 08:21:20;;;;;;;2.45;1.00;;;5.70;99.90;;;;;;5075914;28;20401;-74
2021/03/14 08:23:55;;;;;;;2.28;0.90;;;5.90;99.90;;;;;;5074812;28;20024;-75
2021/03/14 08:26:25;;;;;;;0.98;0.80;;;6.00;99.90;;;;;;5075941;28;20032;-74
2021/03/14 08:29:08;;;;;;;1.58;0.70;;;6.20;99.90;;;;;;5075963;28;20016;-75
2021/03/14 08:31:37;;;;;;;;;;;6.40;99.90;;;;;;5076425;28;20497;-74
2021/03/14 08:34:04;;;;;;;1.13;0.70;;;6.40;99.90;;;;;;5075824;28;19905;-74
2021/03/14 08:36:35;;;;;;;2.00;0.50;;;6.50;99.90;;;;;;5058318;28;20470;-74
2021/03/14 08:39:01;;;;;;;0.93;0.60;;;6.50;99.90;;;;;;5057763;28;20067;-74
2021/03/14 08:41:37;;;;;;;1.27;0.70;;;6.30;99.90;;;;;;5057735;28;20056;-74
2021/03/14 08:44:03;;;;;;;1.90;0.80;;;6.00;99.90;;;;;;5075601;28;20020;-74
2021/03/14 08:46:48;;;;;;;2.08;0.90;;;5.80;99.90;;;;;;5057594;28;20028;-74
2021/03/14 08:49:15;;;;;;;1.10;0.70;;;5.70;99.90;;;;;;5075220;28;20115;-74
2021/03/14 08:51:41;;;;;;;0.85;0.80;;;5.80;99.90;;;;;;5075389;28;20047;-74
2021/03/14 08:54:07;;;;;;;0.82;0.73;;;5.80;99.90;;;;;;5075298;28;20031;-74
2021/03/14 08:56:34;;;;;;;1.85;1.08;;;5.90;99.90;;;;;;5075120;28;20050;-74
2021/03/14 08:59:14;;;;;;;3.42;0.90;;;5.80;99.90;;;;;;5057217;28;20025;-74
2021/03/14 09:01:41;;;;;;;1.30;0.75;;;5.60;99.90;;;;;;5075702;28;20032;-75
2021/03/14 09:04:15;;;;;;;2.30;1.08;;;5.40;99.90;;;;;;5057303;28;20058;-76
2021/03/14 09:06:41;;;;;;;1.33;0.90;;;5.30;99.90;;;;;;5058254;28;20060;-75
2021/03/14 09:09:08;;;;;;;1.30;0.90;;;5.40;99.90;;;;;;5075422;28;20020;-75
2021/03/14 09:11:48;;;;;;;2.97;1.00;;;5.60;99.90;;;;;;5075277;28;20063;-75
2021/03/14 09:14:22;;;;;;;2.08;1.00;;;6.00;99.90;;;;;;5075397;28;20024;-75
2021/03/14 09:16:50;;;;;;;2.55;1.02;;;6.50;99.90;;;;;;5057173;28;20021;-74
2021/03/14 09:19:28;;;;;;;0.90;0.80;;;7.20;99.90;;;;;;5056988;28;20027;-74
2021/03/14 09:22:01;;;;;;;1.40;0.88;;;7.30;99.90;;;;;;5075092;28;20035;-74
2021/03/14 09:24:32;;;;;;;2.28;1.10;;;7.20;99.90;;;;;;5075589;28;20155;-74
2021/03/14 09:27:18;;;;;;;1.53;0.97;;;7.70;99.90;;;;;;5075029;28;20115;-74
2021/03/14 09:29:59;;;;;;;1.50;0.80;;;8.20;99.90;;;;;;5057053;28;20505;-74
2021/03/14 09:32:38;;;;;;;1.10;0.70;;;8.90;99.90;;;;;;5074774;28;20090;-74
2021/03/14 09:35:25;;;;;;;1.40;0.57;;;10.00;99.90;;;;;;5074659;28;20434;-74
2021/03/14 09:37:52;;;;;;;0.85;0.40;;;10.40;99.90;;;;;;5073217;28;20024;-74
2021/03/14 09:40:33;;;;;;;1.40;0.60;;;10.30;99.90;;;;;;5073149;28;20091;-74
2021/03/14 09:43:19;;;;;;;1.85;0.80;;;9.60;99.90;;;;;;5073192;28;20025;-74
2021/03/14 09:45:49;;;;;;;1.60;0.65;;;8.40;99.90;;;;;;5072991;28;20020;-74
2021/03/14 09:48:19;;;;;;;2.45;0.70;;;7.90;99.90;;;;;;5073288;28;20031;-75
2021/03/14 09:50:52;;;;;;;1.63;0.90;;;7.30;99.90;;;;;;5056053;28;20082;-75
2021/03/14 09:53:23;;;;;;;0.85;0.80;;;7.00;99.90;;;;;;5055148;28;20052;-76
2021/03/14 09:55:52;;;;;;;2.38;0.90;;;6.80;99.90;;;;;;5056182;28;20032;-75
2021/03/14 09:58:20;;;;;;;1.88;1.00;;;6.40;99.90;;;;;;5056198;28;20482;-73
2021/03/14 10:00:48;;;;;;;1.30;1.02;;;6.00;99.90;;;;;;5073927;28;20115;-75
2021/03/14 10:03:20;;;;;;;1.73;0.70;;;5.80;99.90;;;;;;5073996;28;20424;-74
2021/03/14 10:05:47;;;;;;;1.90;0.90;;;5.70;99.90;;;;;;5074176;28;20029;-74
2021/03/14 10:08:21;;;;;;;4.05;1.25;;;5.60;99.90;;;;;;5074114;28;20108;-74
2021/03/14 10:10:49;;;;;;;3.55;2.08;;;5.40;99.90;;;;;;5073525;28;20064;-75
2021/03/14 10:13:16;;;;;;;1.10;0.88;;;5.20;99.90;;;;;;5073974;28;20024;-76
2021/03/14 10:15:42;;;;;;;1.38;1.00;;;5.00;99.90;;;;;;5073762;28;20020;-77
2021/03/14 10:18:08;;;;;;;1.13;1.00;;;4.70;99.90;;;;;;5074425;28;20032;-77
2021/03/14 10:20:36;;;;;;;1.40;1.13;;;4.40;99.90;;;;;;5055880;28;20050;-77
2021/03/14 10:23:05;;;;;;;3.30;1.70;;;4.20;99.90;;;;;;5055992;28;20367;-76
2021/03/14 10:25:33;;;;;;;3.28;1.40;;;4.00;99.90;;;;;;5073497;28;20093;-75
2021/03/14 10:28:14;;;;;;;2.42;1.20;;;3.90;99.90;;;;;;5073385;28;20029;-75
2021/03/14 10:30:43;;;;;;;2.08;1.15;;;3.80;99.90;;;;;;5055404;28;20028;-75
2021/03/14 10:33:13;;;;;;;1.92;1.10;;;3.80;99.90;;;;;;5055434;28;20048;-74
2021/03/14 10:35:44;;;;;;;2.47;1.10;;;3.90;99.90;;;;;;5055538;28;20478;-75
2021/03/14 10:38:20;;;;;;;1.60;1.08;;;4.00;99.90;;;;;;5073610;28;20025;-75
2021/03/14 10:40:46;;;;;;;3.65;1.30;;;4.30;99.90;;;;;;5055224;28;20466;-74
2021/03/14 10:43:26;;;;;;;3.83;2.28;;;4.60;99.90;;;;;;5055438;28;20031;-74
2021/03/14 10:45:54;;;;;;;3.95;1.80;;;5.10;99.90;;;;;;5073358;28;20033;-75
2021/03/14 10:48:29;;;;;;;5.35;2.03;;;5.40;99.90;;;;;;5073529;28;20031;-74
2021/03/14 10:51:04;;;;;;;4.18;1.60;;;5.70;99.90;;;;;;5090148;22;20044;-76
2021/03/14 10:53:30;;;;;;;2.65;1.48;;;6.10;99.90;;;;;;5074206;28;20031;-76
2021/03/14 10:56:11;;;;;;;2.42;1.60;;;6.30;99.90;;;;;;5073278;28;20025;-77
2021/03/14 10:58:39;;;;;;;3.30;1.70;;;6.20;99.90;;;;;;5074112;28;20043;-76
2021/03/14 11:01:06;;;;;;;3.50;1.70;;;6.10;99.90;;;;;;5074651;28;20119;-76
2021/03/14 11:03:37;;;;;;;3.10;1.80;;;6.70;99.90;;;;;;5074900;28;20024;-76
2021/03/14 11:06:18;;;;;;;2.90;1.50;;;7.40;99.90;;;;;;5079444;28;20047;-75
2021/03/14 11:08:54;;;;;;;4.55;1.50;;;8.30;99.90;;;;;;5078757;28;20031;-74
2021/03/14 11:11:23;;;;;;;2.25;1.40;;;8.80;99.90;;;;;;5078635;28;20032;-75
2021/03/14 11:13:50;;;;;;;4.10;1.50;;;9.50;99.90;;;;;;5079422;28;20047;-76
2021/03/14 11:16:16;;;;;;;3.33;1.45;;;10.30;99.90;;;;;;5083061;28;20020;-76
2021/03/14 11:18:42;;;;;;;3.13;1.10;;;10.40;99.90;;;;;;5080767;28;20529;-76
2021/03/14 11:21:09;;;;;;;2.45;1.20;;;10.60;99.90;;;;;;5075523;28;20024;-77
2021/03/14 11:23:34;;;;;;;2.13;1.38;;;11.20;99.90;;;;;;5074760;28;20063;-76
2021/03/14 11:26:00;;;;;;;4.22;1.20;;;11.60;98.50;;;;;;5074105;28;20136;-76
2021/03/14 11:28:26;;;;;;;3.65;1.25;;;12.30;93.60;;;;;;5072777;28;20051;-75
2021/03/14 11:30:52;;;;;;;2.03;1.10;;;12.70;86.60;;;;;;5072251;28;20029;-76
2021/03/14 11:33:18;;;;;;;3.58;1.13;;;12.90;83.50;;;;;;5074450;28;20099;-76
2021/03/14 11:35:44;;;;;;;2.60;1.08;;;12.80;84.90;;;;;;5072895;28;20476;-76
2021/03/14 11:38:12;;;;;;;2.33;1.27;;;13.20;80.60;;;;;;5072470;28;20120;-76
2021/03/14 11:40:38;;;;;;;2.33;1.30;;;13.70;74.40;;;;;;5071961;28;20025;-76
2021/03/14 11:43:03;;;;;;;8.60;6.10;;;13.40;73.10;;;;;;5071961;28;20029;-76
2021/03/14 11:45:29;;;;;;;5.38;3.13;;;13.10;74.40;;;;;;5072403;28;20025;-76
2021/03/14 11:47:55;;;;;;;9.30;6.80;;;12.00;77.20;;;;;;5071948;28;20111;-76
2021/03/14 11:50:20;;;;;;;5.22;3.00;;;11.50;80.40;;;;;;5071764;28;20041;-76
2021/03/14 11:52:49;;;;;;;4.20;1.85;;;10.80;85.10;;;;;;5072031;28;20025;-76
2021/03/14 11:55:15;;;;;;;2.92;1.20;;;10.00;89.30;;;;;;5072368;28;20052;-77
2021/03/14 11:57:41;;;;;;;3.95;1.38;;;9.50;93.80;;;;;;5072334;28;20486;-76
2021/03/14 12:00:07;;;;;;;2.53;1.10;;;9.00;93.90;;;;;;5071875;28;20029;-76
2021/03/14 12:02:33;;;;;;;3.63;0.95;;;8.60;95.10;;;;;;5071918;28;20033;-76
2021/03/14 12:04:59;;;;;;;4.10;1.20;;;9.50;94.40;;;;;;5071560;28;20067;-76
2021/03/14 12:07:25;;;;;;;2.30;1.08;;;9.70;92.60;;;;;;5088244;28;20067;-76
2021/03/14 12:09:52;;;;;;;4.20;1.40;;;9.30;91.90;;;;;;5071502;28;20024;-75
2021/03/14 12:12:18;;;;;;;2.35;1.55;;;8.60;93.30;;;;;;5071722;28;20557;-76
2021/03/14 12:14:44;;;;;;;1.77;1.08;;;8.20;94.20;;;;;;5071484;28;20108;-75
2021/03/14 12:17:10;;;;;;;4.40;1.20;;;8.60;96.20;;;;;;5073775;28;20512;-75
2021/03/14 12:19:36;;;;;;;3.10;1.02;;;9.70;91.70;;;;;;5075832;28;20097;-76
2021/03/14 12:22:01;;;;;;;1.83;0.85;;;10.50;86.30;;;;;;5076257;28;20473;-75
2021/03/14 12:24:27;;;;;;;4.45;1.05;;;11.20;82.20;;;;;;5076220;28;20029;-75
2021/03/14 12:26:53;;;;;;;2.45;1.05;;;11.40;78.00;;;;;;5094889;28;20024;-75
2021/03/14 12:29:19;;;;;;;4.22;1.10;;;11.50;75.80;;;;;;5092433;28;20211;-76
2021/03/14 12:31:44;;;;;;;2.42;1.10;;;11.20;76.10;;;;;;5075621;28;20066;-75
2021/03/14 12:34:10;;;;;;;2.17;1.08;;;10.60;80.00;;;;;;5075957;28;20476;-75
2021/03/14 12:36:35;;;;;;;3.75;1.30;;;9.90;80.40;;;;;;5077486;28;20086;-76
2021/03/14 12:39:01;;;;;;;1.73;0.60;;;8.90;86.00;;;;;;5075647;28;20024;-75
2021/03/14 12:41:27;;;;;;;3.08;0.73;;;8.40;91.50;;;;;;5077300;28;20082;-75
2021/03/14 12:43:53;;;;;;;0.50;0.50;;;7.50;95.90;;;;;;5078236;28;20032;-75
2021/03/14 12:46:18;;;;;;;2.03;0.90;;;7.00;99.90;;;;;;5077382;28;20021;-75
2021/03/14 12:48:44;;;;;;;3.35;0.98;;;6.60;99.90;;;;;;5076191;28;20029;-75
2021/03/14 12:51:10;;;;;;;2.17;0.90;;;6.40;99.90;;;;;;5074283;28;20129;-76
2021/03/14 12:53:35;;;;;;;1.33;1.00;;;6.30;99.90;;;;;;5076585;28;20024;-76
2021/03/14 12:56:01;;;;;;;4.55;1.35;;;6.40;99.90;;;;;;5074535;28;20016;-76
2021/03/14 12:58:26;;;;;;;1.85;0.80;;;6.40;99.90;;;;;;5074745;28;20017;-75
2021/03/14 13:00:52;;;;;;;3.33;1.05;;;6.60;99.90;;;;;;5074738;28;20020;-76